KATY

Watertown Regional Airport

Airport
ICAO code
KATY
Summary
ICAO Region
NAM
ICAO Territory
Location

Watertown, South Dakota,

Coordinates
44° 55' 1" N , 97° 9' 30" W
KCC
Airport CFIT
Altimeter Temperature Error Correction
Metar
KATY 191153Z AUTO 28017G26KT 10SM CLR M02/M06 A3011 RMK AO2 PK WND 28030/1133 SLP214 7//// T10171061 10006 21017 53008

Description

Watertown Regional Airport is a public use airport located 4 km northwest of the central business district of Watertown, a city in Codington County, South Dakota.

Climatology

Humid continental climate (Köppen climate classification Dfa) - characterized by four seasons: cold, windy, snowy winters, mild springs, hot, humid summers, and crisp and relatively short autumns. Precipitation reaches its lowest in January and February and peaks in summer and latter half of spring.

Airport map

Aerial View

SKYbrary Partners:

Safety knowledge contributed by: